Aktuální počasí v Česku a ve světě - METAR

Seznam meteostanic umístěných nejčasteji na letišti v ČR a ve světě

Vyhledat místa podle abecedy:
A B C D E F G H I J K L M N O P Q R S T U V W X Y Z

Filtrovat:

ID stanice:
a/nebo
Název místa (fulltext):
 
Místo (ID)Naposledy načteno 
Edinburgh (EGPH) 01.12.2020 04:50 UTC Zobrazit METAR
EGPH 010450Z VRB03KT CAVOK 01/00 Q1026
Eindhoven (EHEH) 01.12.2020 04:55 UTC Zobrazit METAR
EHEH 010455Z AUTO 25007KT 9999 BKN015 BKN021 06/06 Q1012 WHT
Entebbe (HUEN) 01.12.2020 05:00 UTC Zobrazit METAR
HUEN 010500Z 00000KT 9999 FEW018 21/19 Q1018
Esbjerg (EKEB) 01.12.2020 04:50 UTC Zobrazit METAR
EKEB 010450Z AUTO 06004KT 030V090 9000 OVC003/// 03/03 Q1011
Reklama


Další české internetové stránky (nejen) o počasí najdete v katalogu TOPlist - weby o počasí nebo vyhledejte na internetu, co jste tu na 🌞 Slunečnu ⛅ zatím nenašli:
⭐ Přidat Slunečno.cz do oblíbených | 🏠 Nastavit Slunečno.cz jako HOMEPAGE

⬆️ Posunout stránku nahoru ⬆️
Reklama